LGRXLGTG

Guest
Details From LGRX - ARAXOS
To LGTG - TANAGRA
Flight Number -
Tags generated
Created
Modified
Stats Distance 102 nm / 189 km
Max Altitude 13,400 ft / 4,084 m
Waypoints 3
Social Downloads 0
Likes 0
Share VATSIM

Download

Looking for another format? Having issues loading an existing format? Contact us
Advertisement - Login to hide

Notes

Basic altitude profile: - Ascent Rate: 2500ft/min - Ascent Speed: 250kts - Cruise Altitude: 35000ft - Cruise Speed: 420kts - Descent Rate: 1500ft/min - Descent Speed: 250kts Options: - Use NATs: yes - Use PACOTS: yes - Use low airways: yes - Use high airways: yes

Route

LGRX IXONI LGTG

ID Type Via Altitude Latitude Longitude Leg Dist Tot Dist Heading (true) Name
O LGRX APT - 0 ft / 0 m 38.15109˚ 21.42640˚ - 0 nm - ARAXOS
IXONI FIX - 13,400 ft / 4,084 m 38.31667˚ 22.23333˚ 39 nm 39 nm 75° / 76° -
O LGTG APT - 0 ft / 0 m 38.33985˚ 23.56496˚ 62 nm 102 nm 88° / 89° TANAGRA

Altitude Profile

Advertisement - Login to hide

LGRX

Details ICAO LGRX (GPA)
Name ARAXOS
Region Greece
Timezone Europe/Athens (UTC+2.0)
Stats Elevation 46 ft / 14 m (AMSL)
Location 38.151093° 21.426401°
Runways 2
Magnetic Variation 4.179° E

METAR

LGRX 120150Z 00000KT 9999 FEW035 09/07 Q1023 BLU

Decode

TAF

Not found

Departure Runways

ID Width Length Bearing (true) Bearing (mag) Surface Threshold Offset Overrun Length
18L 70 ft / 21 m 11,021 ft / 3,359 m 183.19° 179.01° Asphalt 80 ft / 24 m 135 ft / 41 m
18R 148 ft / 45 m 11,019 ft / 3,359 m 182.93° 178.75° Asphalt 653 ft / 199 m 230 ft / 70 m
36L 148 ft / 45 m 11,019 ft / 3,359 m 2.93° 358.75° Asphalt 669 ft / 204 m 165 ft / 50 m
36R 70 ft / 21 m 11,021 ft / 3,359 m 3.19° 359.01° Asphalt 80 ft / 24 m 150 ft / 46 m

LGTG

Details ICAO LGTG
Name TANAGRA
Region Greece
Timezone Europe/Athens (UTC+2.0)
Stats Elevation 485 ft / 148 m (AMSL)
Location 38.339846° 23.564957°
Runways 1
Magnetic Variation 4.476° E

METAR

LGTG 120150Z 26005KT CAVOK 06/05 Q1023 BLU

Decode

TAF

Not found

Destination Runways

ID Width Length Bearing (true) Bearing (mag) Surface Threshold Offset Overrun Length
10 148 ft / 45 m 9,791 ft / 2,984 m 104.86° 100.38° Asphalt 492 ft / 150 m 775 ft / 236 m
28 148 ft / 45 m 9,791 ft / 2,984 m 284.88° 280.40° Asphalt 0 ft / 0 m 670 ft / 204 m